Airfield :
LOGIN :

Register | Disclaimer

   EN    FR    IT 

 










Legend :    VFR   Marginal VFR   IFR   Intensive IFR   Very Intensive IFR
Visi :
Ceiling :
>= 8 km
>= 3000ft
5 to 8 km
1000 to 3000 ft
1500m to 5 km
500 to 1000 ft
800 to 1500m
200 to 500 ft
< 800m
< 200 ft
Symbols :   Thunderstorms  Fog  Heavy snow  Heavy precipitations  Wind > 20 kt
SIGMETs :     Misc.  Thunderstorms  Icing  Turbulence  Mountain Waves  Volcanic Ashes







- Airport Elevation : 37 ft


EHVL - Vlieland Heliport

CURRENT METAR :
  • 190435Z AUTO 30025KT 9999 FEW015CB SCT043 BKN056 08/05 Q1012 BLU

EXPIRED METARs :
  • 190425Z AUTO 31031G43KT 280V340 7000 -RA FEW019 SCT031 BKN037 07/03 Q1012 WHT
  • 190416Z AUTO 31032G43KT 5000 -RA FEW019 SCT034 BKN080 07/03 Q1012 WHT
  • 190415Z AUTO 31030KT 9999 FEW028 SCT082 08/04 Q1012 BLU
  • 190355Z AUTO 32030KT 9999 FEW023CB SCT068 BKN074 08/02 Q1012 BLU
  • 190343Z AUTO 33031KT 8000 -RA FEW015CB SCT030 BKN046 07/04 Q1012 BLU
  • 190339Z AUTO 33031KT 6000 -RA FEW015CB SCT023 BKN032 07/04 Q1012 WHT
  • 190325Z AUTO 31030KT 9999 FEW018CB 08/03 Q1012 BLU
  • 190258Z AUTO 31028KT 9999 FEW017CB BKN028 BKN032 08/04 Q1012 BLU
  • 190255Z AUTO 31027KT 9999 FEW016CB SCT024 08/04 Q1012 WHT
  • 190245Z AUTO 31025KT 9999 FEW016CB 08/04 Q1012 BLU
  • 190232Z AUTO 31030G41KT 9999 -RA FEW009 SCT026 BKN031 07/04 Q1012 BLU
  • 190228Z AUTO 31030G41KT 5000 -UP FEW020 SCT026 BKN030 07/04 Q1012 WHT
  • 190225Z AUTO 31026KT 9999 SCT027 BKN031 BKN037 08/04 Q1012 BLU
  • 190213Z AUTO 30028KT 9999 FEW015CB SCT026 BKN031 08/04 Q1012 BLU
  • 190205Z AUTO 31029KT 9999 FEW015CB SCT024 BKN110 08/05 Q1012 WHT
  • 190155Z AUTO 31028KT 9999 FEW001 FEW015CB SCT054 BKN091 08/04 Q1012 REUP BLU
  • 190141Z AUTO 32026G37KT 3800 UP FEW015CB SCT026 BKN030 07/04 Q1012 GRN

Expired Forecast.
No reported NOTAMs for that airfield.



MET'MAP, your aeronautical weather chart ! - Copyright ORBIFLY December 2007 - Disclaimer

ORBIFLY MET'MAP TEAM :

Programming & Development : Alexandra Zaïnal
Concept & Development : Baudouin d'Aumeries
Co-Development & Prog : Marc-Olivier Méhu
Technical & hardware support : Manuel Goepfert

Contact : metmap@orbifly.com




SOURCES & CREDITS :

   NOAA